Sainte-Martine, Canada
Current Conditions -  °F | °C
As of 12:00 AM on Saturday 25 Oct 2014 (Local Time) from CYUL Reporting Station
Few Clouds Few Clouds  
Wind Chill: 36°   Ceiling: Unl
Heat Index: 41°   Visibility: 15mi
Dew Point: 37°   Wind: 7mph
Humidity: 87%   Direction: 230°SW
Pressure: 29.78"   Gusts: NA
Location:  45.23°N, 73.8°W
Report Text: CYUL 250400Z 23006KT 15SM FEW150 05/03 A2978 RMK AC1 SLP086
Loading
Personal Weather Stations






























Interactive Weather Map
Tropical Storm Tracking
New forecast layout! Learn more

10-Day Weather Forecast

Advertisements
Track Severe Weather on mobile